createdAt,value
2022-12-01T00:00:07.367Z,103082.72
2022-12-01T00:02:33.914Z,103073.06
2022-12-01T00:05:00.472Z,103080.66
2022-12-01T00:07:27.034Z,103083.09
2022-12-01T00:10:11.920Z,103075.19
2022-12-01T00:12:43.441Z,103078.50
2022-12-01T00:15:11.444Z,103081.34
2022-12-01T00:17:38.701Z,103072.31
2022-12-01T00:20:06.607Z,103073.13
2022-12-01T00:22:33.072Z,103078.22
2022-12-01T00:24:59.484Z,103067.59
2022-12-01T00:27:25.966Z,103065.16
2022-12-01T00:29:52.452Z,103071.25
2022-12-01T00:32:19.029Z,103072.75
2022-12-01T00:34:45.762Z,103072.00
2022-12-01T00:37:12.312Z,103077.09
2022-12-01T00:39:38.817Z,103070.13
2022-12-01T00:42:10.059Z,103069.19
2022-12-01T00:44:39.468Z,103072.94
2022-12-01T00:47:06.013Z,103069.19
2022-12-01T00:49:32.530Z,103066.53
2022-12-01T00:51:59.287Z,103070.03
2022-12-01T00:54:25.703Z,103066.34
2022-12-01T00:56:52.193Z,103071.44
2022-12-01T00:59:18.832Z,103070.59
2022-12-01T01:01:45.362Z,103069.66
2022-12-01T01:04:12.184Z,103073.88
2022-12-01T01:06:38.689Z,103074.00
2022-12-01T01:09:05.216Z,103069.34
2022-12-01T01:11:31.683Z,103081.38
2022-12-01T01:13:59.524Z,103081.50
2022-12-01T01:16:26.763Z,103081.50
2022-12-01T01:18:53.564Z,103091.84
2022-12-01T01:21:21.819Z,103089.09
2022-12-01T01:23:49.958Z,103089.84
2022-12-01T01:26:22.956Z,103090.78
2022-12-01T01:28:50.325Z,103081.19
2022-12-01T01:31:20.441Z,103084.59
2022-12-01T01:33:47.469Z,103083.53
2022-12-01T01:36:15.930Z,103083.72
2022-12-01T01:38:43.159Z,103086.16
2022-12-01T01:41:09.810Z,103086.16
2022-12-01T01:43:57.943Z,103093.97
2022-12-01T01:46:32.800Z,103092.28
2022-12-01T01:49:02.924Z,103087.66
2022-12-01T01:51:41.184Z,103089.53
2022-12-01T01:54:15.567Z,103094.72
2022-12-01T01:56:44.274Z,103101.88
2022-12-01T01:59:19.096Z,103100.09
2022-12-01T02:01:50.737Z,103086.09
2022-12-01T02:04:18.099Z,103090.28
2022-12-01T02:06:44.655Z,103098.13
2022-12-01T02:09:12.647Z,103102.44
2022-12-01T02:12:05.920Z,103084.09
2022-12-01T02:14:57.156Z,103093.59
2022-12-01T02:17:45.273Z,103078.94
2022-12-01T02:20:30.495Z,103084.09
2022-12-01T02:23:27.940Z,103084.75
2022-12-01T02:26:32.183Z,103079.69
2022-12-01T02:29:04.351Z,103077.13
2022-12-01T02:31:43.079Z,103064.16
2022-12-01T02:34:21.650Z,103077.88
2022-12-01T02:37:03.012Z,103090.97
2022-12-01T02:39:38.267Z,103063.22
2022-12-01T02:42:37.564Z,103079.75
2022-12-01T02:45:10.442Z,103068.47
2022-12-01T02:47:39.917Z,103071.09
2022-12-01T02:50:10.149Z,103083.44
2022-12-01T02:52:38.617Z,103085.03
2022-12-01T02:55:05.356Z,103086.63
2022-12-01T02:57:31.807Z,103092.00
2022-12-01T02:59:59.965Z,103089.66
2022-12-01T03:02:48.796Z,103089.53
2022-12-01T03:05:45.619Z,103080.91
2022-12-01T03:08:32.660Z,103084.28
2022-12-01T03:11:00.514Z,103087.03
2022-12-01T03:13:51.201Z,103095.47
2022-12-01T03:16:44.762Z,103093.78
2022-12-01T03:19:44.096Z,103093.78
2022-12-01T03:22:20.051Z,103091.25
2022-12-01T03:24:49.491Z,103084.19
2022-12-01T03:27:20.840Z,103076.19
2022-12-01T03:29:51.758Z,103080.69
2022-12-01T03:32:27.418Z,103080.81
2022-12-01T03:35:19.403Z,103092.94
2022-12-01T03:37:56.168Z,103085.13
2022-12-01T03:40:27.135Z,103086.28
2022-12-01T03:42:59.000Z,103085.34
2022-12-01T03:45:36.415Z,103085.13
2022-12-01T03:48:03.207Z,103089.53
2022-12-01T03:50:45.415Z,103090.59
2022-12-01T03:53:20.505Z,103094.19
2022-12-01T03:55:53.576Z,103092.38
2022-12-01T03:58:26.024Z,103094.19
2022-12-01T04:00:55.501Z,103083.63
2022-12-01T04:03:25.128Z,103084.69
2022-12-01T04:05:51.685Z,103089.09
2022-12-01T04:08:18.929Z,103096.25
2022-12-01T04:10:45.524Z,103093.63
2022-12-01T04:13:22.722Z,103081.50
2022-12-01T04:15:50.990Z,103085.28
2022-12-01T04:18:17.788Z,103089.88
2022-12-01T04:20:49.026Z,103090.91
2022-12-01T04:23:35.727Z,103093.56
2022-12-01T04:26:04.975Z,103104.16
2022-12-01T04:28:31.718Z,103090.06
2022-12-01T04:30:58.222Z,103094.50
2022-12-01T04:33:24.805Z,103100.78
2022-12-01T04:36:00.769Z,103092.88
2022-12-01T04:38:30.873Z,103111.31
2022-12-01T04:40:57.753Z,103100.69
2022-12-01T04:43:24.223Z,103103.31
2022-12-01T04:45:50.666Z,103102.59
2022-12-01T04:48:17.159Z,103093.63
2022-12-01T04:50:43.628Z,103105.97
2022-12-01T04:53:10.095Z,103087.72
2022-12-01T04:55:38.959Z,103107.72
2022-12-01T04:58:05.589Z,103099.75
2022-12-01T05:00:32.485Z,103093.56
2022-12-01T05:02:59.930Z,103090.16
2022-12-01T05:05:26.580Z,103090.06
2022-12-01T05:07:53.089Z,103089.03
2022-12-01T05:10:19.615Z,103095.25
2022-12-01T05:12:46.418Z,103097.38
2022-12-01T05:15:13.589Z,103101.81
2022-12-01T05:17:40.141Z,103101.16
2022-12-01T05:20:26.364Z,103100.41
2022-12-01T05:23:10.782Z,103096.44
2022-12-01T05:25:38.727Z,103105.97
2022-12-01T05:28:05.368Z,103100.03
2022-12-01T05:30:31.804Z,103107.34
2022-12-01T05:32:58.210Z,103114.28
2022-12-01T05:35:24.658Z,103117.09
2022-12-01T05:37:51.108Z,103127.81
2022-12-01T05:40:17.738Z,103107.13
2022-12-01T05:42:44.153Z,103110.53
2022-12-01T05:45:10.846Z,103107.69
2022-12-01T05:47:37.336Z,103112.78
2022-12-01T05:50:05.951Z,103104.06
2022-12-01T05:52:35.149Z,103111.66
2022-12-01T05:55:02.796Z,103115.97
2022-12-01T05:57:29.393Z,103114.09
2022-12-01T05:59:55.950Z,103119.19
2022-12-01T06:02:22.753Z,103112.03
2022-12-01T06:04:49.277Z,103103.41
2022-12-01T06:07:15.780Z,103106.72
2022-12-01T06:09:42.208Z,103107.72
2022-12-01T06:12:08.697Z,103092.22
2022-12-01T06:14:35.168Z,103105.47
2022-12-01T06:17:01.706Z,103105.00
2022-12-01T06:19:28.169Z,103106.94
2022-12-01T06:21:54.658Z,103106.84
2022-12-01T06:24:21.105Z,103122.50
2022-12-01T06:26:47.627Z,103114.31
2022-12-01T06:29:14.114Z,103116.34
2022-12-01T06:31:40.710Z,103112.38
2022-12-01T06:34:07.175Z,103111.69
2022-12-01T06:36:33.822Z,103124.25
2022-12-01T06:39:00.264Z,103110.88
2022-12-01T06:41:26.713Z,103110.41
2022-12-01T06:43:53.302Z,103115.59
2022-12-01T06:46:19.859Z,103126.34
2022-12-01T06:48:49.171Z,103124.06
2022-12-01T06:51:15.673Z,103124.91
2022-12-01T06:53:42.156Z,103125.16
2022-12-01T06:56:08.677Z,103122.63
2022-12-01T06:58:35.299Z,103140.59
2022-12-01T07:01:09.353Z,103134.00
2022-12-01T07:03:35.788Z,103136.78
2022-12-01T07:06:02.925Z,103138.47
2022-12-01T07:08:31.515Z,103142.44
2022-12-01T07:10:58.890Z,103146.66
2022-12-01T07:13:30.092Z,103142.63
2022-12-01T07:15:59.604Z,103140.16
2022-12-01T07:18:26.235Z,103156.56
2022-12-01T07:20:52.683Z,103161.06
2022-12-01T07:23:19.154Z,103159.28
2022-12-01T07:25:45.635Z,103161.91
2022-12-01T07:28:12.126Z,103172.25
2022-12-01T07:30:39.043Z,103169.69
2022-12-01T07:33:05.529Z,103173.94
2022-12-01T07:35:31.954Z,103175.72
2022-12-01T07:37:58.415Z,103183.84
2022-12-01T07:40:24.925Z,103184.94
2022-12-01T07:42:51.415Z,103186.81
2022-12-01T07:45:17.876Z,103180.38
2022-12-01T07:47:44.615Z,103189.09
2022-12-01T07:50:11.760Z,103189.16
2022-12-01T07:52:38.225Z,103182.91
2022-12-01T07:55:04.983Z,103176.66
2022-12-01T07:57:31.477Z,103194.47
2022-12-01T07:59:57.891Z,103189.88
2022-12-01T08:02:24.397Z,103195.56
2022-12-01T08:04:50.909Z,103192.72
2022-12-01T08:07:17.380Z,103195.59
2022-12-01T08:09:44.944Z,103189.25
2022-12-01T08:12:11.429Z,103188.75
2022-12-01T08:14:37.904Z,103193.50
2022-12-01T08:17:04.461Z,103189.38
2022-12-01T08:19:31.042Z,103195.16
2022-12-01T08:21:57.509Z,103195.59
2022-12-01T08:24:24.013Z,103191.41
2022-12-01T08:26:50.473Z,103193.69
2022-12-01T08:29:20.124Z,103204.78
2022-12-01T08:31:47.144Z,103202.66
2022-12-01T08:34:13.608Z,103210.19
2022-12-01T08:36:40.296Z,103209.91
2022-12-01T08:39:08.341Z,103201.78
2022-12-01T08:41:34.876Z,103208.44
2022-12-01T08:44:01.831Z,103209.13
2022-12-01T08:46:32.644Z,103204.34
2022-12-01T08:48:59.386Z,103209.34
2022-12-01T08:51:26.893Z,103206.44
2022-12-01T08:53:55.313Z,103210.75
2022-12-01T08:56:31.387Z,103212.28
2022-12-01T08:58:58.127Z,103215.41
2022-12-01T09:01:25.981Z,103205.06
2022-12-01T09:04:05.608Z,103203.81
2022-12-01T09:06:40.953Z,103207.78
2022-12-01T09:09:13.325Z,103212.88
2022-12-01T09:11:40.829Z,103215.44
2022-12-01T09:14:07.294Z,103203.00
2022-12-01T09:16:33.928Z,103209.03
2022-12-01T09:19:00.419Z,103213.94
2022-12-01T09:21:32.783Z,103201.53
2022-12-01T09:24:00.350Z,103203.28
2022-12-01T09:26:27.665Z,103217.41
2022-12-01T09:28:58.030Z,103204.22
2022-12-01T09:31:24.804Z,103208.25
2022-12-01T09:34:02.612Z,103205.56
2022-12-01T09:36:31.039Z,103206.31
2022-12-01T09:38:58.272Z,103203.38
2022-12-01T09:41:29.976Z,103207.31
2022-12-01T09:44:33.713Z,103207.88
2022-12-01T09:47:07.281Z,103198.97
2022-12-01T09:49:49.165Z,103204.78
2022-12-01T09:52:19.207Z,103193.00
2022-12-01T09:54:47.233Z,103183.78
2022-12-01T09:57:36.764Z,103182.38
2022-12-01T10:00:17.163Z,103176.25
2022-12-01T10:03:13.996Z,103178.28
2022-12-01T10:09:03.410Z,103159.28
2022-12-01T10:11:52.352Z,103164.34
2022-12-01T10:14:21.111Z,103163.22
2022-12-01T10:16:53.280Z,103173.47
2022-12-01T10:19:32.945Z,103162.19
2022-12-01T10:22:19.112Z,103173.28
2022-12-01T10:25:20.212Z,103173.31
2022-12-01T10:28:05.835Z,103180.19
2022-12-01T10:30:39.244Z,103180.94
2022-12-01T10:33:21.734Z,103172.91
2022-12-01T10:35:48.182Z,103172.50
2022-12-01T10:38:25.244Z,103166.47
2022-12-01T10:40:53.929Z,103177.16
2022-12-01T10:43:31.820Z,103174.31
2022-12-01T10:46:04.305Z,103179.59
2022-12-01T10:48:30.935Z,103176.31
2022-12-01T10:51:15.030Z,103177.38
2022-12-01T10:53:41.498Z,103181.09
2022-12-01T10:56:18.279Z,103170.22
2022-12-01T10:58:54.101Z,103171.09
2022-12-01T11:01:25.923Z,103176.56
2022-12-01T11:03:56.992Z,103165.81
2022-12-01T11:06:29.402Z,103165.81
2022-12-01T11:09:02.506Z,103162.41
2022-12-01T11:11:40.368Z,103156.00
2022-12-01T11:14:36.291Z,103158.31
2022-12-01T11:17:16.866Z,103158.03
2022-12-01T11:19:43.651Z,103153.69
2022-12-01T11:22:23.828Z,103156.31
2022-12-01T11:24:53.229Z,103156.75
2022-12-01T11:27:24.011Z,103161.81
2022-12-01T11:29:57.116Z,103147.88
2022-12-01T11:32:30.681Z,103147.06
2022-12-01T11:35:02.869Z,103142.75
2022-12-01T11:37:38.989Z,103137.78
2022-12-01T11:40:20.476Z,103125.31
2022-12-01T11:42:50.847Z,103133.09
2022-12-01T11:45:20.315Z,103135.66
2022-12-01T11:48:02.191Z,103134.28
2022-12-01T11:50:36.430Z,103132.06
2022-12-01T11:53:04.074Z,103123.63
2022-12-01T11:55:31.843Z,103122.88
2022-12-01T11:58:02.804Z,103118.84
2022-12-01T12:00:42.561Z,103109.88
2022-12-01T12:03:23.472Z,103117.25
2022-12-01T12:09:28.740Z,103113.34
2022-12-01T12:12:10.894Z,103110.19
2022-12-01T12:15:16.389Z,103111.56
2022-12-01T12:17:57.955Z,103116.84
2022-12-01T12:20:42.937Z,103107.13
2022-12-01T12:23:37.340Z,103104.91
2022-12-01T12:26:39.153Z,103107.97
2022-12-01T12:29:13.998Z,103110.63
2022-12-01T12:31:49.423Z,103101.22
2022-12-01T12:34:31.931Z,103103.34
2022-12-01T12:37:12.309Z,103096.03
2022-12-01T12:40:05.002Z,103101.84
2022-12-01T12:42:40.608Z,103102.50
2022-12-01T12:45:16.119Z,103088.13
2022-12-01T12:47:55.769Z,103093.06
2022-12-01T12:50:37.178Z,103094.00
2022-12-01T12:53:14.514Z,103086.00
2022-12-01T12:55:45.379Z,103091.28
2022-12-01T12:58:27.961Z,103077.13
2022-12-01T13:01:03.564Z,103078.03
2022-12-01T13:03:39.180Z,103079.72
2022-12-01T13:06:11.330Z,103079.28
2022-12-01T13:08:48.019Z,103079.78
2022-12-01T13:11:27.663Z,103080.25
2022-12-01T13:14:03.835Z,103081.97
2022-12-01T13:16:51.903Z,103071.41
2022-12-01T13:19:25.626Z,103087.06
2022-12-01T13:21:53.503Z,103075.84
2022-12-01T13:24:24.015Z,103079.03
2022-12-01T13:27:02.093Z,103084.94
2022-12-01T13:29:34.421Z,103080.50
2022-12-01T13:32:02.165Z,103076.06
2022-12-01T13:34:38.524Z,103077.53
2022-12-01T13:37:05.506Z,103067.81
2022-12-01T13:39:35.881Z,103071.41
2022-12-01T13:42:19.129Z,103072.91
2022-12-01T13:45:17.077Z,103072.81
2022-12-01T13:47:46.358Z,103079.25
2022-12-01T13:50:39.111Z,103078.41
2022-12-01T13:53:27.071Z,103077.03
2022-12-01T13:56:04.252Z,103076.59
2022-12-01T13:58:33.417Z,103063.81
2022-12-01T14:01:22.473Z,103063.19
2022-12-01T14:04:02.259Z,103067.53
2022-12-01T14:06:28.730Z,103061.31
2022-12-01T14:09:00.138Z,103050.31
2022-12-01T14:11:28.458Z,103059.50
2022-12-01T14:14:12.065Z,103055.59
2022-12-01T14:16:46.133Z,103054.97
2022-12-01T14:19:29.534Z,103047.38
2022-12-01T14:21:57.670Z,103051.38
2022-12-01T14:24:33.856Z,103043.69
2022-12-01T14:27:00.548Z,103041.16
2022-12-01T14:29:28.891Z,103055.31
2022-12-01T14:31:55.236Z,103048.53
2022-12-01T14:34:26.465Z,103051.47
2022-12-01T14:36:58.757Z,103045.78
2022-12-01T14:39:29.532Z,103055.59
2022-12-01T14:42:02.885Z,103054.94
2022-12-01T14:44:36.486Z,103050.94
2022-12-01T14:47:11.819Z,103060.00
2022-12-01T14:49:47.334Z,103062.13
2022-12-01T14:52:24.415Z,103063.16
2022-12-01T14:54:52.908Z,103061.66
2022-12-01T14:57:24.696Z,103062.72
2022-12-01T15:00:12.757Z,103061.44
2022-12-01T15:02:47.089Z,103053.03
2022-12-01T15:05:19.417Z,103055.25
2022-12-01T15:07:50.440Z,103059.03
2022-12-01T15:10:23.263Z,103065.44
2022-12-01T15:12:51.140Z,103058.88
2022-12-01T15:15:25.765Z,103055.59
2022-12-01T15:17:55.728Z,103057.66
2022-12-01T15:20:42.419Z,103053.66
2022-12-01T15:23:15.536Z,103054.81
2022-12-01T15:25:44.243Z,103048.13
2022-12-01T15:28:20.133Z,103050.31
2022-12-01T15:30:52.721Z,103058.59
2022-12-01T15:33:28.418Z,103058.81
2022-12-01T15:35:58.709Z,103055.72
2022-12-01T15:38:34.758Z,103052.34
2022-12-01T15:41:28.579Z,103061.56
2022-12-01T15:44:03.422Z,103065.41
2022-12-01T15:46:32.245Z,103068.53
2022-12-01T15:49:16.379Z,103068.91
2022-12-01T15:51:43.215Z,103078.97
2022-12-01T15:54:19.384Z,103079.16
2022-12-01T15:56:50.121Z,103083.59
2022-12-01T15:59:26.633Z,103085.72
2022-12-01T16:01:53.596Z,103085.28
2022-12-01T16:04:29.509Z,103088.34
2022-12-01T16:07:05.970Z,103078.75
2022-12-01T16:09:40.174Z,103092.22
2022-12-01T16:12:09.363Z,103095.22
2022-12-01T16:14:36.691Z,103092.00
2022-12-01T16:17:04.696Z,103093.88
2022-12-01T16:19:32.836Z,103088.03
2022-12-01T16:22:11.569Z,103092.72
2022-12-01T16:24:52.149Z,103087.72
2022-12-01T16:27:24.115Z,103089.94
2022-12-01T16:29:57.228Z,103089.47
2022-12-01T16:32:32.766Z,103097.63
2022-12-01T16:34:59.882Z,103091.78
2022-12-01T16:37:27.417Z,103089.25
2022-12-01T16:39:53.936Z,103098.16
2022-12-01T16:42:22.033Z,103097.31
2022-12-01T16:44:50.446Z,103095.34
2022-12-01T16:47:20.273Z,103092.66
2022-12-01T16:49:46.820Z,103082.38
2022-12-01T16:55:00.532Z,103076.66
2022-12-01T16:57:26.970Z,103077.84
2022-12-01T16:59:53.447Z,103080.66
2022-12-01T17:02:19.976Z,103086.44
2022-12-01T17:04:46.548Z,103085.00
2022-12-01T17:07:13.063Z,103079.09
2022-12-01T17:09:39.565Z,103075.88
2022-12-01T17:12:06.282Z,103081.47
2022-12-01T17:14:32.888Z,103075.53
2022-12-01T17:16:59.337Z,103081.13
2022-12-01T17:19:25.864Z,103089.59
2022-12-01T17:21:52.917Z,103087.31
2022-12-01T17:24:19.542Z,103089.41
2022-12-01T17:26:46.014Z,103090.59
2022-12-01T17:29:12.479Z,103079.75
2022-12-01T17:31:39.078Z,103087.94
2022-12-01T17:34:05.600Z,103082.97
2022-12-01T17:36:32.089Z,103077.34
2022-12-01T17:38:58.856Z,103085.47
2022-12-01T17:41:32.042Z,103087.50
2022-12-01T17:43:58.796Z,103089.50
2022-12-01T17:46:25.613Z,103088.97
2022-12-01T17:48:52.203Z,103090.16
2022-12-01T17:51:18.683Z,103078.88
2022-12-01T17:53:45.229Z,103084.28
2022-12-01T17:56:14.052Z,103084.44
2022-12-01T17:58:41.046Z,103073.34
2022-12-01T18:01:14.880Z,103085.63
2022-12-01T18:03:41.975Z,103084.16
2022-12-01T18:06:08.507Z,103082.63
2022-12-01T18:08:36.132Z,103084.72
2022-12-01T18:11:07.779Z,103086.72
2022-12-01T18:13:39.316Z,103086.94
2022-12-01T18:16:09.277Z,103084.56
2022-12-01T18:18:37.305Z,103080.31
2022-12-01T18:21:08.593Z,103080.31
2022-12-01T18:23:35.532Z,103085.84
2022-12-01T18:26:13.780Z,103082.63
2022-12-01T18:28:42.107Z,103087.25
2022-12-01T18:31:11.657Z,103086.63
2022-12-01T18:33:40.338Z,103084.25
2022-12-01T18:36:13.190Z,103085.06
2022-12-01T18:38:40.880Z,103075.75
2022-12-01T18:41:07.859Z,103079.97
2022-12-01T18:43:34.668Z,103079.31
2022-12-01T18:46:03.645Z,103078.38
2022-12-01T18:48:30.204Z,103091.53
2022-12-01T18:50:59.605Z,103081.16
2022-12-01T18:53:27.032Z,103091.63
2022-12-01T18:55:53.597Z,103079.50
2022-12-01T18:58:20.074Z,103083.19
2022-12-01T19:00:46.621Z,103080.66
2022-12-01T19:03:13.102Z,103082.56
2022-12-01T19:05:40.424Z,103092.22
2022-12-01T19:08:06.953Z,103086.22
2022-12-01T19:10:33.558Z,103092.38
2022-12-01T19:13:00.715Z,103091.50
2022-12-01T19:15:27.240Z,103081.03
2022-12-01T19:17:55.018Z,103086.25
2022-12-01T19:20:21.505Z,103083.78
2022-12-01T19:22:48.026Z,103082.88
2022-12-01T19:25:14.625Z,103080.09
2022-12-01T19:27:41.162Z,103079.97
2022-12-01T19:30:08.191Z,103080.72
2022-12-01T19:32:34.896Z,103075.28
2022-12-01T19:35:01.515Z,103077.66
2022-12-01T19:37:28.116Z,103075.59
2022-12-01T19:39:54.635Z,103081.22
2022-12-01T19:42:21.128Z,103073.84
2022-12-01T19:44:47.748Z,103084.94
2022-12-01T19:47:17.807Z,103081.19
2022-12-01T19:49:48.342Z,103076.47
2022-12-01T19:52:14.805Z,103075.22
2022-12-01T19:54:41.430Z,103073.75
2022-12-01T19:57:07.855Z,103069.66
2022-12-01T19:59:34.345Z,103077.97
2022-12-01T20:02:00.909Z,103082.72
2022-12-01T20:04:27.474Z,103085.09
2022-12-01T20:06:53.976Z,103083.00
2022-12-01T20:09:20.478Z,103083.13
2022-12-01T20:11:47.005Z,103078.22
2022-12-01T20:14:13.825Z,103081.09
2022-12-01T20:16:40.563Z,103083.31
2022-12-01T20:19:07.539Z,103077.75
2022-12-01T20:21:36.580Z,103073.84
2022-12-01T20:24:07.592Z,103069.09
2022-12-01T20:26:37.253Z,103078.41
2022-12-01T20:29:22.977Z,103067.06
2022-12-01T20:31:50.963Z,103065.47
2022-12-01T20:34:30.840Z,103076.91
2022-12-01T20:36:57.896Z,103076.72
2022-12-01T20:39:24.787Z,103073.16
2022-12-01T20:41:51.320Z,103088.91
2022-12-01T20:44:18.361Z,103088.00
2022-12-01T20:46:45.834Z,103073.81
2022-12-01T20:49:13.835Z,103084.00
2022-12-01T20:51:40.644Z,103075.88
2022-12-01T20:54:28.184Z,103071.84
2022-12-01T20:56:55.794Z,103068.81
2022-12-01T20:59:22.299Z,103062.63
2022-12-01T21:01:48.919Z,103064.03
2022-12-01T21:04:15.422Z,103069.03
2022-12-01T21:06:42.339Z,103058.53
2022-12-01T21:09:09.516Z,103061.63
2022-12-01T21:12:05.087Z,103057.97
2022-12-01T21:15:16.509Z,103063.81
2022-12-01T21:17:57.989Z,103054.97
2022-12-01T21:20:39.255Z,103060.81
2022-12-01T21:23:10.973Z,103054.72
2022-12-01T21:25:39.397Z,103052.75
2022-12-01T21:28:18.471Z,103047.41
2022-12-01T21:30:47.296Z,103047.31
2022-12-01T21:33:28.245Z,103047.41
2022-12-01T21:35:55.855Z,103045.53
2022-12-01T21:38:22.456Z,103041.03
2022-12-01T21:40:49.061Z,103033.03
2022-12-01T21:43:22.619Z,103033.16
2022-12-01T21:45:59.901Z,103033.16
2022-12-01T21:48:34.122Z,103033.22
2022-12-01T21:51:04.130Z,103028.84
2022-12-01T21:53:37.500Z,103024.41
2022-12-01T21:56:04.047Z,103025.34
2022-12-01T21:58:36.173Z,103033.81
2022-12-01T22:01:14.443Z,103028.53
2022-12-01T22:03:45.067Z,103026.59
2022-12-01T22:06:40.538Z,103032.69
2022-12-01T22:09:33.766Z,103033.63
2022-12-01T22:12:12.520Z,103023.28
2022-12-01T22:14:39.302Z,103022.28
2022-12-01T22:17:05.716Z,103026.50
2022-12-01T22:19:33.477Z,103025.47
2022-12-01T22:22:01.412Z,103021.97
2022-12-01T22:24:32.850Z,103021.22
2022-12-01T22:27:05.273Z,103018.34
2022-12-01T22:29:39.196Z,103012.97
2022-12-01T22:32:11.937Z,103007.63
2022-12-01T22:34:39.650Z,103017.09
2022-12-01T22:37:22.753Z,103017.97
2022-12-01T22:39:55.336Z,103016.09
2022-12-01T22:42:35.429Z,103015.03
2022-12-01T22:45:25.487Z,103014.09
2022-12-01T22:48:00.249Z,103018.44
2022-12-01T22:50:28.481Z,103015.81
2022-12-01T22:53:00.795Z,103019.47
2022-12-01T22:55:27.560Z,103013.09
2022-12-01T22:57:55.038Z,103012.16
2022-12-01T23:00:23.169Z,103012.34
2022-12-01T23:02:52.246Z,103013.16
2022-12-01T23:05:27.802Z,103022.94
2022-12-01T23:07:55.303Z,103002.00
2022-12-01T23:10:28.927Z,103008.19
2022-12-01T23:12:59.402Z,103013.34
2022-12-01T23:15:34.650Z,102999.63
2022-12-01T23:18:11.758Z,103001.25
2022-12-01T23:20:38.294Z,102997.88
2022-12-01T23:23:10.549Z,103002.06
2022-12-01T23:25:37.002Z,103002.19
2022-12-01T23:28:07.820Z,102992.69
2022-12-01T23:30:36.295Z,102993.44
2022-12-01T23:33:09.933Z,102998.81
2022-12-01T23:36:17.114Z,102992.69
2022-12-01T23:38:45.948Z,102990.25
2022-12-01T23:41:33.011Z,102993.53
2022-12-01T23:44:04.305Z,102991.19
2022-12-01T23:46:32.664Z,102992.03
2022-12-01T23:49:07.140Z,102979.16
2022-12-01T23:51:45.759Z,102986.09
2022-12-01T23:54:16.520Z,102984.34
2022-12-01T23:56:48.074Z,102987.03
2022-12-01T23:59:14.530Z,102983.59
